sensor_id;sensor_type;location;lat;lon;timestamp;pressure;altitude;pressure_sealevel;temperature
19644;BMP180;9970;-36.854;174.870;2023-12-20T00:00:30;102106.00;;;25.00
19644;BMP180;9970;-36.854;174.870;2023-12-20T00:03:04;102103.00;;;25.00
19644;BMP180;9970;-36.854;174.870;2023-12-20T00:05:38;102096.00;;;25.00
19644;BMP180;9970;-36.854;174.870;2023-12-20T00:08:12;102091.00;;;25.00
19644;BMP180;9970;-36.854;174.870;2023-12-20T00:10:45;102093.00;;;25.00
19644;BMP180;9970;-36.854;174.870;2023-12-20T00:13:19;102085.00;;;25.00
19644;BMP180;9970;-36.854;174.870;2023-12-20T00:15:52;102084.00;;;25.10
19644;BMP180;9970;-36.854;174.870;2023-12-20T00:18:29;102073.00;;;25.10
19644;BMP180;9970;-36.854;174.870;2023-12-20T00:21:02;102076.00;;;25.10
19644;BMP180;9970;-36.854;174.870;2023-12-20T00:23:34;102076.00;;;25.10
19644;BMP180;9970;-36.854;174.870;2023-12-20T00:26:08;102082.00;;;25.10
19644;BMP180;9970;-36.854;174.870;2023-12-20T00:28:41;102070.00;;;25.10
19644;BMP180;9970;-36.854;174.870;2023-12-20T00:31:14;102067.00;;;25.10
19644;BMP180;9970;-36.854;174.870;2023-12-20T00:33:47;102067.00;;;25.10
19644;BMP180;9970;-36.854;174.870;2023-12-20T00:36:20;102066.00;;;25.20
19644;BMP180;9970;-36.854;174.870;2023-12-20T00:38:53;102060.00;;;25.10
19644;BMP180;9970;-36.854;174.870;2023-12-20T00:41:26;102067.00;;;25.20
19644;BMP180;9970;-36.854;174.870;2023-12-20T00:43:59;102056.00;;;25.20
19644;BMP180;9970;-36.854;174.870;2023-12-20T00:46:32;102061.00;;;25.10
19644;BMP180;9970;-36.854;174.870;2023-12-20T00:49:05;102065.00;;;25.20
19644;BMP180;9970;-36.854;174.870;2023-12-20T00:51:38;102060.00;;;25.20
19644;BMP180;9970;-36.854;174.870;2023-12-20T00:54:14;102059.00;;;25.20
19644;BMP180;9970;-36.854;174.870;2023-12-20T00:56:47;102059.00;;;25.20
19644;BMP180;9970;-36.854;174.870;2023-12-20T00:59:20;102060.00;;;25.20
19644;BMP180;9970;-36.854;174.870;2023-12-20T01:01:55;102049.00;;;25.20
19644;BMP180;9970;-36.854;174.870;2023-12-20T01:04:29;102058.00;;;25.20
19644;BMP180;9970;-36.854;174.870;2023-12-20T01:07:02;102056.00;;;25.20
19644;BMP180;9970;-36.854;174.870;2023-12-20T01:09:35;102053.00;;;25.20
19644;BMP180;9970;-36.854;174.870;2023-12-20T01:12:08;102056.00;;;25.20
19644;BMP180;9970;-36.854;174.870;2023-12-20T01:14:41;102061.00;;;25.20
19644;BMP180;9970;-36.854;174.870;2023-12-20T01:17:14;102054.00;;;25.20
19644;BMP180;9970;-36.854;174.870;2023-12-20T01:19:46;102061.00;;;25.20
19644;BMP180;9970;-36.854;174.870;2023-12-20T01:22:19;102058.00;;;25.20
19644;BMP180;9970;-36.854;174.870;2023-12-20T01:24:52;102052.00;;;25.10
19644;BMP180;9970;-36.854;174.870;2023-12-20T01:27:25;102053.00;;;25.20
19644;BMP180;9970;-36.854;174.870;2023-12-20T01:29:58;102051.00;;;25.20
19644;BMP180;9970;-36.854;174.870;2023-12-20T01:32:31;102050.00;;;25.20
19644;BMP180;9970;-36.854;174.870;2023-12-20T01:35:04;102051.00;;;25.20
19644;BMP180;9970;-36.854;174.870;2023-12-20T01:37:37;102049.00;;;25.20
19644;BMP180;9970;-36.854;174.870;2023-12-20T01:40:11;102046.00;;;25.20
19644;BMP180;9970;-36.854;174.870;2023-12-20T01:42:44;102042.00;;;25.20
19644;BMP180;9970;-36.854;174.870;2023-12-20T01:45:17;102042.00;;;25.20
19644;BMP180;9970;-36.854;174.870;2023-12-20T01:47:58;102045.00;;;25.20
19644;BMP180;9970;-36.854;174.870;2023-12-20T01:50:37;102047.00;;;25.20
19644;BMP180;9970;-36.854;174.870;2023-12-20T01:53:12;102043.00;;;25.20
19644;BMP180;9970;-36.854;174.870;2023-12-20T01:55:50;102047.00;;;25.20
19644;BMP180;9970;-36.854;174.870;2023-12-20T01:58:24;102041.00;;;25.20
19644;BMP180;9970;-36.854;174.870;2023-12-20T02:00:58;102032.00;;;25.20
19644;BMP180;9970;-36.854;174.870;2023-12-20T02:03:31;102039.00;;;25.10
19644;BMP180;9970;-36.854;174.870;2023-12-20T02:06:07;102026.00;;;25.10
19644;BMP180;9970;-36.854;174.870;2023-12-20T02:08:40;102032.00;;;25.10
19644;BMP180;9970;-36.854;174.870;2023-12-20T02:11:13;102032.00;;;25.10
19644;BMP180;9970;-36.854;174.870;2023-12-20T02:13:46;102023.00;;;25.10
19644;BMP180;9970;-36.854;174.870;2023-12-20T02:16:19;102028.00;;;25.00
19644;BMP180;9970;-36.854;174.870;2023-12-20T02:18:52;102019.00;;;25.00
19644;BMP180;9970;-36.854;174.870;2023-12-20T02:21:35;102026.00;;;25.00
19644;BMP180;9970;-36.854;174.870;2023-12-20T02:24:08;102021.00;;;25.00
19644;BMP180;9970;-36.854;174.870;2023-12-20T02:26:41;102018.00;;;25.00
19644;BMP180;9970;-36.854;174.870;2023-12-20T02:29:20;102024.00;;;25.00
19644;BMP180;9970;-36.854;174.870;2023-12-20T02:31:56;102024.00;;;24.90
19644;BMP180;9970;-36.854;174.870;2023-12-20T02:34:29;102021.00;;;24.90
19644;BMP180;9970;-36.854;174.870;2023-12-20T02:37:02;102024.00;;;24.90
19644;BMP180;9970;-36.854;174.870;2023-12-20T02:39:35;102025.00;;;24.90
19644;BMP180;9970;-36.854;174.870;2023-12-20T02:42:09;102025.00;;;24.80
19644;BMP180;9970;-36.854;174.870;2023-12-20T02:44:41;102031.00;;;24.80
19644;BMP180;9970;-36.854;174.870;2023-12-20T02:47:15;102019.00;;;24.80
19644;BMP180;9970;-36.854;174.870;2023-12-20T02:49:48;102011.00;;;24.70
19644;BMP180;9970;-36.854;174.870;2023-12-20T02:52:25;102013.00;;;24.70
19644;BMP180;9970;-36.854;174.870;2023-12-20T02:54:58;102014.00;;;24.60
19644;BMP180;9970;-36.854;174.870;2023-12-20T02:57:31;102010.00;;;24.60
19644;BMP180;9970;-36.854;174.870;2023-12-20T03:00:08;102009.00;;;24.60
19644;BMP180;9970;-36.854;174.870;2023-12-20T03:02:41;102014.00;;;24.60
19644;BMP180;9970;-36.854;174.870;2023-12-20T03:05:13;102012.00;;;24.50
19644;BMP180;9970;-36.854;174.870;2023-12-20T03:07:46;102012.00;;;24.50
19644;BMP180;9970;-36.854;174.870;2023-12-20T03:10:20;102012.00;;;24.40
19644;BMP180;9970;-36.854;174.870;2023-12-20T03:12:54;102018.00;;;24.40
19644;BMP180;9970;-36.854;174.870;2023-12-20T03:15:27;102009.00;;;24.40
19644;BMP180;9970;-36.854;174.870;2023-12-20T03:18:00;102012.00;;;24.40
19644;BMP180;9970;-36.854;174.870;2023-12-20T03:20:33;102007.00;;;24.30
19644;BMP180;9970;-36.854;174.870;2023-12-20T03:23:06;102005.00;;;24.30
19644;BMP180;9970;-36.854;174.870;2023-12-20T03:25:39;102009.00;;;24.20
19644;BMP180;9970;-36.854;174.870;2023-12-20T03:28:14;102012.00;;;24.20
19644;BMP180;9970;-36.854;174.870;2023-12-20T03:30:46;102021.00;;;24.20
19644;BMP180;9970;-36.854;174.870;2023-12-20T03:33:20;102017.00;;;24.20
19644;BMP180;9970;-36.854;174.870;2023-12-20T03:35:53;102013.00;;;24.10
19644;BMP180;9970;-36.854;174.870;2023-12-20T03:38:26;102015.00;;;24.10
19644;BMP180;9970;-36.854;174.870;2023-12-20T03:40:59;102017.00;;;24.10
19644;BMP180;9970;-36.854;174.870;2023-12-20T03:43:32;102019.00;;;24.10
19644;BMP180;9970;-36.854;174.870;2023-12-20T03:46:05;102015.00;;;24.10
19644;BMP180;9970;-36.854;174.870;2023-12-20T03:48:38;102010.00;;;24.10
19644;BMP180;9970;-36.854;174.870;2023-12-20T03:51:11;102017.00;;;24.10
19644;BMP180;9970;-36.854;174.870;2023-12-20T03:53:44;102012.00;;;24.10
19644;BMP180;9970;-36.854;174.870;2023-12-20T03:56:20;102024.00;;;24.00
19644;BMP180;9970;-36.854;174.870;2023-12-20T03:58:54;102012.00;;;24.00
19644;BMP180;9970;-36.854;174.870;2023-12-20T04:01:27;102015.00;;;24.00
19644;BMP180;9970;-36.854;174.870;2023-12-20T04:04:00;102012.00;;;23.90
19644;BMP180;9970;-36.854;174.870;2023-12-20T04:06:33;102011.00;;;23.90
19644;BMP180;9970;-36.854;174.870;2023-12-20T04:09:06;102019.00;;;23.90
19644;BMP180;9970;-36.854;174.870;2023-12-20T04:11:41;102021.00;;;23.90
19644;BMP180;9970;-36.854;174.870;2023-12-20T04:14:14;102017.00;;;23.80
19644;BMP180;9970;-36.854;174.870;2023-12-20T04:16:47;102018.00;;;23.80
19644;BMP180;9970;-36.854;174.870;2023-12-20T04:19:20;102014.00;;;23.80
19644;BMP180;9970;-36.854;174.870;2023-12-20T04:21:53;102022.00;;;23.70
19644;BMP180;9970;-36.854;174.870;2023-12-20T04:24:26;102010.00;;;23.70
19644;BMP180;9970;-36.854;174.870;2023-12-20T04:27:00;102000.00;;;23.70
19644;BMP180;9970;-36.854;174.870;2023-12-20T04:29:33;102007.00;;;23.70
19644;BMP180;9970;-36.854;174.870;2023-12-20T04:32:07;102013.00;;;23.70
19644;BMP180;9970;-36.854;174.870;2023-12-20T04:34:42;102008.00;;;23.70
19644;BMP180;9970;-36.854;174.870;2023-12-20T04:37:15;102011.00;;;23.70
19644;BMP180;9970;-36.854;174.870;2023-12-20T04:39:48;102010.00;;;23.60
19644;BMP180;9970;-36.854;174.870;2023-12-20T04:42:21;102008.00;;;23.60
19644;BMP180;9970;-36.854;174.870;2023-12-20T04:44:54;102011.00;;;23.60
19644;BMP180;9970;-36.854;174.870;2023-12-20T04:47:28;102011.00;;;23.60
19644;BMP180;9970;-36.854;174.870;2023-12-20T04:50:01;102008.00;;;23.60
19644;BMP180;9970;-36.854;174.870;2023-12-20T04:52:34;102004.00;;;23.60
19644;BMP180;9970;-36.854;174.870;2023-12-20T04:55:08;101996.00;;;23.60
19644;BMP180;9970;-36.854;174.870;2023-12-20T04:57:41;101993.00;;;23.60
19644;BMP180;9970;-36.854;174.870;2023-12-20T05:00:15;101995.00;;;23.50
19644;BMP180;9970;-36.854;174.870;2023-12-20T05:02:48;101992.00;;;23.50
19644;BMP180;9970;-36.854;174.870;2023-12-20T05:05:21;101990.00;;;23.50
19644;BMP180;9970;-36.854;174.870;2023-12-20T05:07:58;101989.00;;;23.50
19644;BMP180;9970;-36.854;174.870;2023-12-20T05:10:31;101986.00;;;23.50
19644;BMP180;9970;-36.854;174.870;2023-12-20T05:13:04;101985.00;;;23.50
19644;BMP180;9970;-36.854;174.870;2023-12-20T05:15:37;101982.00;;;23.50
19644;BMP180;9970;-36.854;174.870;2023-12-20T05:18:10;101981.00;;;23.50
19644;BMP180;9970;-36.854;174.870;2023-12-20T05:20:43;101981.00;;;23.50
19644;BMP180;9970;-36.854;174.870;2023-12-20T05:23:17;101982.00;;;23.40
19644;BMP180;9970;-36.854;174.870;2023-12-20T05:25:51;101960.00;;;23.40
19644;BMP180;9970;-36.854;174.870;2023-12-20T05:28:24;101982.00;;;23.40
19644;BMP180;9970;-36.854;174.870;2023-12-20T05:30:57;101984.00;;;23.40
19644;BMP180;9970;-36.854;174.870;2023-12-20T05:33:31;101978.00;;;23.30
19644;BMP180;9970;-36.854;174.870;2023-12-20T05:36:05;101980.00;;;23.30
19644;BMP180;9970;-36.854;174.870;2023-12-20T05:38:39;101981.00;;;23.30
19644;BMP180;9970;-36.854;174.870;2023-12-20T05:41:12;101981.00;;;23.30
19644;BMP180;9970;-36.854;174.870;2023-12-20T05:43:45;101985.00;;;23.30
19644;BMP180;9970;-36.854;174.870;2023-12-20T05:46:18;101986.00;;;23.30
19644;BMP180;9970;-36.854;174.870;2023-12-20T05:48:52;101979.00;;;23.20
19644;BMP180;9970;-36.854;174.870;2023-12-20T05:51:25;101973.00;;;23.20
19644;BMP180;9970;-36.854;174.870;2023-12-20T05:53:58;101983.00;;;23.20
19644;BMP180;9970;-36.854;174.870;2023-12-20T05:56:31;101985.00;;;23.20
19644;BMP180;9970;-36.854;174.870;2023-12-20T05:59:07;101994.00;;;23.20
19644;BMP180;9970;-36.854;174.870;2023-12-20T06:01:40;101997.00;;;23.10
19644;BMP180;9970;-36.854;174.870;2023-12-20T06:04:14;101989.00;;;23.10
19644;BMP180;9970;-36.854;174.870;2023-12-20T06:06:48;101996.00;;;23.10
19644;BMP180;9970;-36.854;174.870;2023-12-20T06:09:21;101998.00;;;23.10
19644;BMP180;9970;-36.854;174.870;2023-12-20T06:11:55;102002.00;;;23.10
19644;BMP180;9970;-36.854;174.870;2023-12-20T06:14:28;102012.00;;;23.10
19644;BMP180;9970;-36.854;174.870;2023-12-20T06:17:02;102013.00;;;23.00
19644;BMP180;9970;-36.854;174.870;2023-12-20T06:19:35;102011.00;;;23.00
19644;BMP180;9970;-36.854;174.870;2023-12-20T06:22:08;102015.00;;;23.00
19644;BMP180;9970;-36.854;174.870;2023-12-20T06:24:42;102012.00;;;23.00
19644;BMP180;9970;-36.854;174.870;2023-12-20T06:27:15;102020.00;;;22.90
19644;BMP180;9970;-36.854;174.870;2023-12-20T06:29:52;102018.00;;;22.90
19644;BMP180;9970;-36.854;174.870;2023-12-20T06:32:25;102031.00;;;22.90
19644;BMP180;9970;-36.854;174.870;2023-12-20T06:34:59;102030.00;;;22.90
19644;BMP180;9970;-36.854;174.870;2023-12-20T06:37:32;102022.00;;;22.90
19644;BMP180;9970;-36.854;174.870;2023-12-20T06:40:06;102025.00;;;22.80
19644;BMP180;9970;-36.854;174.870;2023-12-20T06:42:40;102022.00;;;22.80
19644;BMP180;9970;-36.854;174.870;2023-12-20T06:45:15;102031.00;;;22.80
19644;BMP180;9970;-36.854;174.870;2023-12-20T06:47:49;102024.00;;;22.80
19644;BMP180;9970;-36.854;174.870;2023-12-20T06:50:22;102029.00;;;22.80
19644;BMP180;9970;-36.854;174.870;2023-12-20T06:52:56;102034.00;;;22.80
19644;BMP180;9970;-36.854;174.870;2023-12-20T06:55:37;102036.00;;;22.70
19644;BMP180;9970;-36.854;174.870;2023-12-20T06:58:10;102035.00;;;22.70
19644;BMP180;9970;-36.854;174.870;2023-12-20T07:00:44;102044.00;;;22.70
19644;BMP180;9970;-36.854;174.870;2023-12-20T07:03:17;102046.00;;;22.70
19644;BMP180;9970;-36.854;174.870;2023-12-20T07:05:50;102044.00;;;22.70
19644;BMP180;9970;-36.854;174.870;2023-12-20T07:08:23;102044.00;;;22.70
19644;BMP180;9970;-36.854;174.870;2023-12-20T07:10:57;102050.00;;;22.70
19644;BMP180;9970;-36.854;174.870;2023-12-20T07:13:30;102044.00;;;22.70
19644;BMP180;9970;-36.854;174.870;2023-12-20T07:16:04;102038.00;;;22.60
19644;BMP180;9970;-36.854;174.870;2023-12-20T07:18:37;102044.00;;;22.60
19644;BMP180;9970;-36.854;174.870;2023-12-20T07:21:10;102050.00;;;22.60
19644;BMP180;9970;-36.854;174.870;2023-12-20T07:23:43;102047.00;;;22.60
19644;BMP180;9970;-36.854;174.870;2023-12-20T07:26:17;102054.00;;;22.50
19644;BMP180;9970;-36.854;174.870;2023-12-20T07:28:50;102053.00;;;22.50
19644;BMP180;9970;-36.854;174.870;2023-12-20T07:31:23;102051.00;;;22.50
19644;BMP180;9970;-36.854;174.870;2023-12-20T07:33:56;102050.00;;;22.50
19644;BMP180;9970;-36.854;174.870;2023-12-20T07:36:30;102052.00;;;22.50
19644;BMP180;9970;-36.854;174.870;2023-12-20T07:39:04;102044.00;;;22.50
19644;BMP180;9970;-36.854;174.870;2023-12-20T07:41:37;102046.00;;;22.50
19644;BMP180;9970;-36.854;174.870;2023-12-20T07:44:10;102053.00;;;22.50
19644;BMP180;9970;-36.854;174.870;2023-12-20T07:46:43;102051.00;;;22.40
19644;BMP180;9970;-36.854;174.870;2023-12-20T07:49:16;102060.00;;;22.40
19644;BMP180;9970;-36.854;174.870;2023-12-20T07:51:49;102061.00;;;22.40
19644;BMP180;9970;-36.854;174.870;2023-12-20T07:54:26;102057.00;;;22.40
19644;BMP180;9970;-36.854;174.870;2023-12-20T07:56:56;102050.00;;;22.40
19644;BMP180;9970;-36.854;174.870;2023-12-20T07:59:30;102059.00;;;22.40
19644;BMP180;9970;-36.854;174.870;2023-12-20T08:02:04;102059.00;;;22.30
19644;BMP180;9970;-36.854;174.870;2023-12-20T08:04:38;102062.00;;;22.30
19644;BMP180;9970;-36.854;174.870;2023-12-20T08:07:12;102062.00;;;22.30
19644;BMP180;9970;-36.854;174.870;2023-12-20T08:09:46;102055.00;;;22.30
19644;BMP180;9970;-36.854;174.870;2023-12-20T08:12:19;102058.00;;;22.30
19644;BMP180;9970;-36.854;174.870;2023-12-20T08:15:02;102054.00;;;22.30
19644;BMP180;9970;-36.854;174.870;2023-12-20T08:17:35;102060.00;;;22.30
19644;BMP180;9970;-36.854;174.870;2023-12-20T08:20:09;102072.00;;;22.30
19644;BMP180;9970;-36.854;174.870;2023-12-20T08:22:44;102061.00;;;22.30
19644;BMP180;9970;-36.854;174.870;2023-12-20T08:25:17;102058.00;;;22.20
19644;BMP180;9970;-36.854;174.870;2023-12-20T08:27:50;102070.00;;;22.20
19644;BMP180;9970;-36.854;174.870;2023-12-20T08:30:24;102080.00;;;22.20
19644;BMP180;9970;-36.854;174.870;2023-12-20T08:33:03;102077.00;;;22.20
19644;BMP180;9970;-36.854;174.870;2023-12-20T08:35:35;102071.00;;;22.20
19644;BMP180;9970;-36.854;174.870;2023-12-20T08:38:09;102085.00;;;22.10
19644;BMP180;9970;-36.854;174.870;2023-12-20T08:40:42;102083.00;;;22.10
19644;BMP180;9970;-36.854;174.870;2023-12-20T08:43:15;102079.00;;;22.10
19644;BMP180;9970;-36.854;174.870;2023-12-20T08:45:53;102085.00;;;22.10
19644;BMP180;9970;-36.854;174.870;2023-12-20T08:48:26;102075.00;;;22.10
19644;BMP180;9970;-36.854;174.870;2023-12-20T08:50:59;102077.00;;;22.00
19644;BMP180;9970;-36.854;174.870;2023-12-20T08:53:33;102082.00;;;22.10
19644;BMP180;9970;-36.854;174.870;2023-12-20T08:56:06;102085.00;;;22.00
19644;BMP180;9970;-36.854;174.870;2023-12-20T08:58:39;102095.00;;;22.00
19644;BMP180;9970;-36.854;174.870;2023-12-20T09:01:16;102103.00;;;22.00
19644;BMP180;9970;-36.854;174.870;2023-12-20T09:03:50;102096.00;;;22.00
19644;BMP180;9970;-36.854;174.870;2023-12-20T09:06:23;102106.00;;;22.00
19644;BMP180;9970;-36.854;174.870;2023-12-20T09:08:56;102105.00;;;21.90
19644;BMP180;9970;-36.854;174.870;2023-12-20T09:11:29;102107.00;;;21.90
19644;BMP180;9970;-36.854;174.870;2023-12-20T09:14:02;102108.00;;;21.90
19644;BMP180;9970;-36.854;174.870;2023-12-20T09:16:35;102114.00;;;21.90
19644;BMP180;9970;-36.854;174.870;2023-12-20T09:19:15;102113.00;;;21.90
19644;BMP180;9970;-36.854;174.870;2023-12-20T09:21:51;102122.00;;;21.90
19644;BMP180;9970;-36.854;174.870;2023-12-20T09:24:24;102130.00;;;21.90
19644;BMP180;9970;-36.854;174.870;2023-12-20T09:27:00;102128.00;;;21.90
19644;BMP180;9970;-36.854;174.870;2023-12-20T09:29:33;102125.00;;;21.90
19644;BMP180;9970;-36.854;174.870;2023-12-20T09:32:07;102114.00;;;21.80
19644;BMP180;9970;-36.854;174.870;2023-12-20T09:34:40;102115.00;;;21.80
19644;BMP180;9970;-36.854;174.870;2023-12-20T09:37:13;102121.00;;;21.80
19644;BMP180;9970;-36.854;174.870;2023-12-20T09:39:46;102117.00;;;21.80
19644;BMP180;9970;-36.854;174.870;2023-12-20T09:45:12;102114.00;;;21.80
19644;BMP180;9970;-36.854;174.870;2023-12-20T09:47:46;102113.00;;;21.80
19644;BMP180;9970;-36.854;174.870;2023-12-20T09:50:23;102114.00;;;21.80
19644;BMP180;9970;-36.854;174.870;2023-12-20T09:52:57;102118.00;;;21.80
19644;BMP180;9970;-36.854;174.870;2023-12-20T09:55:31;102114.00;;;21.80
19644;BMP180;9970;-36.854;174.870;2023-12-20T09:58:05;102115.00;;;21.70
19644;BMP180;9970;-36.854;174.870;2023-12-20T10:00:39;102119.00;;;21.70
19644;BMP180;9970;-36.854;174.870;2023-12-20T10:03:14;102108.00;;;21.70
19644;BMP180;9970;-36.854;174.870;2023-12-20T10:05:48;102111.00;;;21.70
19644;BMP180;9970;-36.854;174.870;2023-12-20T10:08:25;102113.00;;;21.70
19644;BMP180;9970;-36.854;174.870;2023-12-20T10:10:58;102112.00;;;21.70
19644;BMP180;9970;-36.854;174.870;2023-12-20T10:13:32;102110.00;;;21.70
19644;BMP180;9970;-36.854;174.870;2023-12-20T10:16:07;102107.00;;;21.70
19644;BMP180;9970;-36.854;174.870;2023-12-20T10:18:45;102106.00;;;21.70
19644;BMP180;9970;-36.854;174.870;2023-12-20T10:21:14;102107.00;;;21.70
19644;BMP180;9970;-36.854;174.870;2023-12-20T10:23:47;102113.00;;;21.70
19644;BMP180;9970;-36.854;174.870;2023-12-20T10:26:27;102115.00;;;21.70
19644;BMP180;9970;-36.854;174.870;2023-12-20T10:29:03;102114.00;;;21.70
19644;BMP180;9970;-36.854;174.870;2023-12-20T10:31:38;102112.00;;;21.70
19644;BMP180;9970;-36.854;174.870;2023-12-20T10:34:11;102113.00;;;21.70
19644;BMP180;9970;-36.854;174.870;2023-12-20T10:36:44;102114.00;;;21.70
19644;BMP180;9970;-36.854;174.870;2023-12-20T10:39:18;102107.00;;;21.70
19644;BMP180;9970;-36.854;174.870;2023-12-20T10:41:51;102102.00;;;21.70
19644;BMP180;9970;-36.854;174.870;2023-12-20T10:44:24;102121.00;;;21.70
19644;BMP180;9970;-36.854;174.870;2023-12-20T10:46:58;102114.00;;;21.70
19644;BMP180;9970;-36.854;174.870;2023-12-20T10:49:31;102101.00;;;21.70
19644;BMP180;9970;-36.854;174.870;2023-12-20T10:52:06;102107.00;;;21.70
19644;BMP180;9970;-36.854;174.870;2023-12-20T10:54:43;102095.00;;;21.70
19644;BMP180;9970;-36.854;174.870;2023-12-20T10:57:18;102091.00;;;21.70
19644;BMP180;9970;-36.854;174.870;2023-12-20T10:59:52;102095.00;;;21.70
19644;BMP180;9970;-36.854;174.870;2023-12-20T11:02:26;102098.00;;;21.70
19644;BMP180;9970;-36.854;174.870;2023-12-20T11:07:42;102087.00;;;21.70
19644;BMP180;9970;-36.854;174.870;2023-12-20T11:13:07;102088.00;;;21.70
19644;BMP180;9970;-36.854;174.870;2023-12-20T11:15:41;102090.00;;;21.60
19644;BMP180;9970;-36.854;174.870;2023-12-20T11:18:19;102087.00;;;21.60
19644;BMP180;9970;-36.854;174.870;2023-12-20T11:20:52;102087.00;;;21.60
19644;BMP180;9970;-36.854;174.870;2023-12-20T11:23:26;102089.00;;;21.60
19644;BMP180;9970;-36.854;174.870;2023-12-20T11:26:00;102081.00;;;21.60
19644;BMP180;9970;-36.854;174.870;2023-12-20T11:28:33;102081.00;;;21.70
19644;BMP180;9970;-36.854;174.870;2023-12-20T11:31:07;102087.00;;;21.70
19644;BMP180;9970;-36.854;174.870;2023-12-20T11:33:41;102088.00;;;21.70
19644;BMP180;9970;-36.854;174.870;2023-12-20T11:36:19;102092.00;;;21.70
19644;BMP180;9970;-36.854;174.870;2023-12-20T11:38:59;102079.00;;;21.60
19644;BMP180;9970;-36.854;174.870;2023-12-20T11:41:32;102079.00;;;21.60
19644;BMP180;9970;-36.854;174.870;2023-12-20T11:44:05;102078.00;;;21.60
19644;BMP180;9970;-36.854;174.870;2023-12-20T11:46:38;102079.00;;;21.60
19644;BMP180;9970;-36.854;174.870;2023-12-20T11:49:11;102075.00;;;21.60
19644;BMP180;9970;-36.854;174.870;2023-12-20T11:51:49;102076.00;;;21.60
19644;BMP180;9970;-36.854;174.870;2023-12-20T11:54:21;102070.00;;;21.50
19644;BMP180;9970;-36.854;174.870;2023-12-20T11:56:58;102066.00;;;21.50
19644;BMP180;9970;-36.854;174.870;2023-12-20T11:59:31;102068.00;;;21.50
19644;BMP180;9970;-36.854;174.870;2023-12-20T12:02:05;102066.00;;;21.50
19644;BMP180;9970;-36.854;174.870;2023-12-20T12:04:45;102064.00;;;21.50
19644;BMP180;9970;-36.854;174.870;2023-12-20T12:07:18;102060.00;;;21.40
19644;BMP180;9970;-36.854;174.870;2023-12-20T12:09:52;102053.00;;;21.40
19644;BMP180;9970;-36.854;174.870;2023-12-20T12:12:25;102053.00;;;21.40
19644;BMP180;9970;-36.854;174.870;2023-12-20T12:15:01;102045.00;;;21.40
19644;BMP180;9970;-36.854;174.870;2023-12-20T12:17:34;102040.00;;;21.30
19644;BMP180;9970;-36.854;174.870;2023-12-20T12:20:08;102041.00;;;21.30
19644;BMP180;9970;-36.854;174.870;2023-12-20T12:22:41;102042.00;;;21.30
19644;BMP180;9970;-36.854;174.870;2023-12-20T12:25:14;102034.00;;;21.30
19644;BMP180;9970;-36.854;174.870;2023-12-20T12:27:47;102037.00;;;21.30
19644;BMP180;9970;-36.854;174.870;2023-12-20T12:30:21;102034.00;;;21.30
19644;BMP180;9970;-36.854;174.870;2023-12-20T12:32:56;102033.00;;;21.30
19644;BMP180;9970;-36.854;174.870;2023-12-20T12:35:29;102033.00;;;21.20
19644;BMP180;9970;-36.854;174.870;2023-12-20T12:38:02;102031.00;;;21.20
19644;BMP180;9970;-36.854;174.870;2023-12-20T12:40:36;102028.00;;;21.20
19644;BMP180;9970;-36.854;174.870;2023-12-20T12:43:09;102026.00;;;21.20
19644;BMP180;9970;-36.854;174.870;2023-12-20T12:45:42;102024.00;;;21.20
19644;BMP180;9970;-36.854;174.870;2023-12-20T12:48:15;102027.00;;;21.20
19644;BMP180;9970;-36.854;174.870;2023-12-20T12:50:49;102024.00;;;21.20
19644;BMP180;9970;-36.854;174.870;2023-12-20T12:53:27;102023.00;;;21.20
19644;BMP180;9970;-36.854;174.870;2023-12-20T12:56:00;102024.00;;;21.20
19644;BMP180;9970;-36.854;174.870;2023-12-20T12:58:33;102025.00;;;21.20
19644;BMP180;9970;-36.854;174.870;2023-12-20T13:01:06;102029.00;;;21.20
19644;BMP180;9970;-36.854;174.870;2023-12-20T13:03:43;102027.00;;;21.20
19644;BMP180;9970;-36.854;174.870;2023-12-20T13:06:17;102023.00;;;21.20
19644;BMP180;9970;-36.854;174.870;2023-12-20T13:08:50;102019.00;;;21.20
19644;BMP180;9970;-36.854;174.870;2023-12-20T13:11:22;102021.00;;;21.20
19644;BMP180;9970;-36.854;174.870;2023-12-20T13:13:56;102031.00;;;21.20
19644;BMP180;9970;-36.854;174.870;2023-12-20T13:16:29;102017.00;;;21.10
19644;BMP180;9970;-36.854;174.870;2023-12-20T13:19:02;102015.00;;;21.10
19644;BMP180;9970;-36.854;174.870;2023-12-20T13:21:36;102013.00;;;21.10
19644;BMP180;9970;-36.854;174.870;2023-12-20T13:24:09;102005.00;;;21.10
19644;BMP180;9970;-36.854;174.870;2023-12-20T13:26:42;102003.00;;;21.10
19644;BMP180;9970;-36.854;174.870;2023-12-20T13:29:15;102000.00;;;21.10
19644;BMP180;9970;-36.854;174.870;2023-12-20T13:31:48;102009.00;;;21.00
19644;BMP180;9970;-36.854;174.870;2023-12-20T13:34:21;102013.00;;;21.00
19644;BMP180;9970;-36.854;174.870;2023-12-20T13:36:54;102002.00;;;21.00
19644;BMP180;9970;-36.854;174.870;2023-12-20T13:39:28;102006.00;;;21.00
19644;BMP180;9970;-36.854;174.870;2023-12-20T13:42:02;102002.00;;;21.00
19644;BMP180;9970;-36.854;174.870;2023-12-20T13:44:35;102000.00;;;21.00
19644;BMP180;9970;-36.854;174.870;2023-12-20T13:47:08;101990.00;;;21.00
19644;BMP180;9970;-36.854;174.870;2023-12-20T13:49:41;101984.00;;;21.00
19644;BMP180;9970;-36.854;174.870;2023-12-20T13:52:15;101984.00;;;20.90
19644;BMP180;9970;-36.854;174.870;2023-12-20T13:54:50;101990.00;;;20.90
19644;BMP180;9970;-36.854;174.870;2023-12-20T13:57:23;101979.00;;;20.90
19644;BMP180;9970;-36.854;174.870;2023-12-20T13:59:57;101980.00;;;20.90
19644;BMP180;9970;-36.854;174.870;2023-12-20T14:02:30;101983.00;;;20.80
19644;BMP180;9970;-36.854;174.870;2023-12-20T14:05:03;101988.00;;;20.80
19644;BMP180;9970;-36.854;174.870;2023-12-20T14:07:37;101982.00;;;20.80
19644;BMP180;9970;-36.854;174.870;2023-12-20T14:10:11;101979.00;;;20.90
19644;BMP180;9970;-36.854;174.870;2023-12-20T14:12:44;101981.00;;;20.90
19644;BMP180;9970;-36.854;174.870;2023-12-20T14:15:17;101973.00;;;20.80